sensor_id;sensor_type;location;lat;lon;timestamp;temperature;humidity
19805;DHT22;10062;51.052;13.756;2023-08-06T00:00:34;17.90;1.00
19805;DHT22;10062;51.052;13.756;2023-08-06T00:03:05;17.90;1.00
19805;DHT22;10062;51.052;13.756;2023-08-06T00:05:41;17.90;1.00
19805;DHT22;10062;51.052;13.756;2023-08-06T00:08:13;17.90;1.00
19805;DHT22;10062;51.052;13.756;2023-08-06T00:10:47;18.10;1.00
19805;DHT22;10062;51.052;13.756;2023-08-06T00:13:19;17.90;1.00
19805;DHT22;10062;51.052;13.756;2023-08-06T00:15:51;18.00;1.00
19805;DHT22;10062;51.052;13.756;2023-08-06T00:18:22;17.90;1.00
19805;DHT22;10062;51.052;13.756;2023-08-06T00:20:55;17.90;1.00
19805;DHT22;10062;51.052;13.756;2023-08-06T00:23:27;17.90;1.00
19805;DHT22;10062;51.052;13.756;2023-08-06T00:25:59;17.90;1.00
19805;DHT22;10062;51.052;13.756;2023-08-06T00:28:31;17.70;1.00
19805;DHT22;10062;51.052;13.756;2023-08-06T00:31:02;17.70;1.00
19805;DHT22;10062;51.052;13.756;2023-08-06T00:33:34;17.80;5.70
19805;DHT22;10062;51.052;13.756;2023-08-06T00:36:07;17.60;3.60
19805;DHT22;10062;51.052;13.756;2023-08-06T00:38:39;17.50;22.60
19805;DHT22;10062;51.052;13.756;2023-08-06T00:41:11;17.50;42.00
19805;DHT22;10062;51.052;13.756;2023-08-06T00:43:42;17.50;68.80
19805;DHT22;10062;51.052;13.756;2023-08-06T00:46:16;17.50;71.40
19805;DHT22;10062;51.052;13.756;2023-08-06T00:48:48;17.50;77.20
19805;DHT22;10062;51.052;13.756;2023-08-06T00:51:22;17.50;77.00
19805;DHT22;10062;51.052;13.756;2023-08-06T00:53:54;17.50;78.70
19805;DHT22;10062;51.052;13.756;2023-08-06T00:56:27;17.60;80.50
19805;DHT22;10062;51.052;13.756;2023-08-06T00:59:00;17.50;81.00
19805;DHT22;10062;51.052;13.756;2023-08-06T01:01:32;17.50;81.80
19805;DHT22;10062;51.052;13.756;2023-08-06T01:04:04;17.60;83.90
19805;DHT22;10062;51.052;13.756;2023-08-06T01:06:42;17.60;81.20
19805;DHT22;10062;51.052;13.756;2023-08-06T01:09:27;17.50;73.60
19805;DHT22;10062;51.052;13.756;2023-08-06T01:14:57;17.50;69.40
19805;DHT22;10062;51.052;13.756;2023-08-06T01:17:30;17.50;61.60
19805;DHT22;10062;51.052;13.756;2023-08-06T01:20:03;17.50;63.70
19805;DHT22;10062;51.052;13.756;2023-08-06T01:22:37;17.50;70.30
19805;DHT22;10062;51.052;13.756;2023-08-06T01:25:08;17.50;90.00
19805;DHT22;10062;51.052;13.756;2023-08-06T01:27:45;17.30;99.90
19805;DHT22;10062;51.052;13.756;2023-08-06T01:30:22;17.30;99.90
19805;DHT22;10062;51.052;13.756;2023-08-06T01:32:59;17.20;99.90
19805;DHT22;10062;51.052;13.756;2023-08-06T01:35:32;17.10;99.90
19805;DHT22;10062;51.052;13.756;2023-08-06T01:38:06;17.00;99.90
19805;DHT22;10062;51.052;13.756;2023-08-06T01:40:38;17.00;99.90
19805;DHT22;10062;51.052;13.756;2023-08-06T01:43:10;17.00;99.90
19805;DHT22;10062;51.052;13.756;2023-08-06T01:45:42;17.00;99.90
19805;DHT22;10062;51.052;13.756;2023-08-06T01:48:13;17.10;99.90
19805;DHT22;10062;51.052;13.756;2023-08-06T01:50:45;17.10;99.90
19805;DHT22;10062;51.052;13.756;2023-08-06T01:53:18;17.20;99.90
19805;DHT22;10062;51.052;13.756;2023-08-06T01:55:50;17.20;99.90
19805;DHT22;10062;51.052;13.756;2023-08-06T01:58:22;17.20;99.90
19805;DHT22;10062;51.052;13.756;2023-08-06T02:00:54;17.20;99.90
19805;DHT22;10062;51.052;13.756;2023-08-06T02:03:25;17.30;99.90
19805;DHT22;10062;51.052;13.756;2023-08-06T02:05:57;17.30;99.90
19805;DHT22;10062;51.052;13.756;2023-08-06T02:08:30;17.30;99.90
19805;DHT22;10062;51.052;13.756;2023-08-06T02:11:02;17.30;99.90
19805;DHT22;10062;51.052;13.756;2023-08-06T02:13:35;17.30;99.90
19805;DHT22;10062;51.052;13.756;2023-08-06T02:16:07;17.30;99.90
19805;DHT22;10062;51.052;13.756;2023-08-06T02:18:40;17.30;99.90
19805;DHT22;10062;51.052;13.756;2023-08-06T02:21:12;17.30;99.90
19805;DHT22;10062;51.052;13.756;2023-08-06T02:23:45;17.40;99.90
19805;DHT22;10062;51.052;13.756;2023-08-06T02:26:16;17.40;99.90
19805;DHT22;10062;51.052;13.756;2023-08-06T02:28:48;17.40;99.90
19805;DHT22;10062;51.052;13.756;2023-08-06T02:31:20;17.30;99.90
19805;DHT22;10062;51.052;13.756;2023-08-06T02:33:52;17.40;99.90
19805;DHT22;10062;51.052;13.756;2023-08-06T02:36:24;17.50;99.90
19805;DHT22;10062;51.052;13.756;2023-08-06T02:39:01;17.40;99.90
19805;DHT22;10062;51.052;13.756;2023-08-06T02:41:34;17.40;99.90
19805;DHT22;10062;51.052;13.756;2023-08-06T02:44:06;17.50;98.80
19805;DHT22;10062;51.052;13.756;2023-08-06T02:46:37;17.60;91.80
19805;DHT22;10062;51.052;13.756;2023-08-06T02:49:09;17.50;99.90
19805;DHT22;10062;51.052;13.756;2023-08-06T02:51:41;17.60;99.90
19805;DHT22;10062;51.052;13.756;2023-08-06T02:54:14;17.60;62.50
19805;DHT22;10062;51.052;13.756;2023-08-06T02:56:46;17.50;60.10
19805;DHT22;10062;51.052;13.756;2023-08-06T02:59:32;17.50;75.50
19805;DHT22;10062;51.052;13.756;2023-08-06T03:02:18;17.40;93.80
19805;DHT22;10062;51.052;13.756;2023-08-06T03:04:59;17.40;99.90
19805;DHT22;10062;51.052;13.756;2023-08-06T03:07:36;17.30;99.90
19805;DHT22;10062;51.052;13.756;2023-08-06T03:10:17;17.30;99.90
19805;DHT22;10062;51.052;13.756;2023-08-06T03:12:51;17.30;99.90
19805;DHT22;10062;51.052;13.756;2023-08-06T03:15:24;17.30;99.90
19805;DHT22;10062;51.052;13.756;2023-08-06T03:17:57;17.30;99.90
19805;DHT22;10062;51.052;13.756;2023-08-06T03:20:29;17.30;99.90
19805;DHT22;10062;51.052;13.756;2023-08-06T03:23:01;17.50;96.00
19805;DHT22;10062;51.052;13.756;2023-08-06T03:25:36;17.50;40.30
19805;DHT22;10062;51.052;13.756;2023-08-06T03:28:08;17.50;29.80
19805;DHT22;10062;51.052;13.756;2023-08-06T03:30:40;17.40;44.80
19805;DHT22;10062;51.052;13.756;2023-08-06T03:33:14;17.40;76.60
19805;DHT22;10062;51.052;13.756;2023-08-06T03:35:48;17.30;62.90
19805;DHT22;10062;51.052;13.756;2023-08-06T03:38:19;17.30;86.50
19805;DHT22;10062;51.052;13.756;2023-08-06T03:40:53;17.20;91.80
19805;DHT22;10062;51.052;13.756;2023-08-06T03:43:25;17.20;96.90
19805;DHT22;10062;51.052;13.756;2023-08-06T03:45:57;17.10;99.90
19805;DHT22;10062;51.052;13.756;2023-08-06T03:48:29;17.00;99.90
19805;DHT22;10062;51.052;13.756;2023-08-06T03:53:33;17.00;99.90
19805;DHT22;10062;51.052;13.756;2023-08-06T03:56:06;17.10;99.90
19805;DHT22;10062;51.052;13.756;2023-08-06T03:58:39;17.10;99.90
19805;DHT22;10062;51.052;13.756;2023-08-06T04:01:12;17.10;99.90
19805;DHT22;10062;51.052;13.756;2023-08-06T04:03:48;17.00;99.90
19805;DHT22;10062;51.052;13.756;2023-08-06T04:06:20;17.10;99.90
19805;DHT22;10062;51.052;13.756;2023-08-06T04:08:51;17.10;99.90
19805;DHT22;10062;51.052;13.756;2023-08-06T04:11:24;17.20;99.90
19805;DHT22;10062;51.052;13.756;2023-08-06T04:13:56;17.10;99.90
19805;DHT22;10062;51.052;13.756;2023-08-06T04:16:29;17.20;99.90
19805;DHT22;10062;51.052;13.756;2023-08-06T04:19:00;17.10;99.90
19805;DHT22;10062;51.052;13.756;2023-08-06T04:21:32;17.20;99.90
19805;DHT22;10062;51.052;13.756;2023-08-06T04:24:04;17.20;99.90
19805;DHT22;10062;51.052;13.756;2023-08-06T04:26:37;17.20;99.90
19805;DHT22;10062;51.052;13.756;2023-08-06T04:29:09;17.20;99.90
19805;DHT22;10062;51.052;13.756;2023-08-06T04:31:41;17.20;99.90
19805;DHT22;10062;51.052;13.756;2023-08-06T04:34:13;17.20;99.90
19805;DHT22;10062;51.052;13.756;2023-08-06T04:36:45;17.20;99.90
19805;DHT22;10062;51.052;13.756;2023-08-06T04:39:17;17.20;99.90
19805;DHT22;10062;51.052;13.756;2023-08-06T04:41:50;17.20;99.90
19805;DHT22;10062;51.052;13.756;2023-08-06T04:44:21;17.30;99.90
19805;DHT22;10062;51.052;13.756;2023-08-06T04:46:53;17.20;99.90
19805;DHT22;10062;51.052;13.756;2023-08-06T04:49:25;17.20;99.90
19805;DHT22;10062;51.052;13.756;2023-08-06T04:51:57;17.20;99.90
19805;DHT22;10062;51.052;13.756;2023-08-06T04:54:29;17.20;99.90
19805;DHT22;10062;51.052;13.756;2023-08-06T04:57:02;17.20;99.90
19805;DHT22;10062;51.052;13.756;2023-08-06T04:59:34;17.20;99.90
19805;DHT22;10062;51.052;13.756;2023-08-06T05:02:06;17.30;99.90
19805;DHT22;10062;51.052;13.756;2023-08-06T05:04:37;17.30;97.60
19805;DHT22;10062;51.052;13.756;2023-08-06T05:07:10;17.30;98.60
19805;DHT22;10062;51.052;13.756;2023-08-06T05:09:42;17.30;99.90
19805;DHT22;10062;51.052;13.756;2023-08-06T05:12:15;17.30;99.90
19805;DHT22;10062;51.052;13.756;2023-08-06T05:14:47;17.30;99.90
19805;DHT22;10062;51.052;13.756;2023-08-06T05:17:19;17.30;99.90
19805;DHT22;10062;51.052;13.756;2023-08-06T05:19:50;17.40;99.90
19805;DHT22;10062;51.052;13.756;2023-08-06T05:22:22;17.50;99.90
19805;DHT22;10062;51.052;13.756;2023-08-06T05:24:54;17.40;99.90
19805;DHT22;10062;51.052;13.756;2023-08-06T05:27:27;17.40;99.50
19805;DHT22;10062;51.052;13.756;2023-08-06T05:29:59;17.50;79.10
19805;DHT22;10062;51.052;13.756;2023-08-06T05:32:30;17.50;58.40
19805;DHT22;10062;51.052;13.756;2023-08-06T05:35:02;17.50;35.90
19805;DHT22;10062;51.052;13.756;2023-08-06T05:37:34;17.40;36.30
19805;DHT22;10062;51.052;13.756;2023-08-06T05:40:07;17.40;56.30
19805;DHT22;10062;51.052;13.756;2023-08-06T05:42:41;17.30;79.50
19805;DHT22;10062;51.052;13.756;2023-08-06T05:45:13;17.30;92.80
19805;DHT22;10062;51.052;13.756;2023-08-06T05:47:45;17.30;98.30
19805;DHT22;10062;51.052;13.756;2023-08-06T05:50:17;17.40;99.90
19805;DHT22;10062;51.052;13.756;2023-08-06T05:52:49;17.40;99.90
19805;DHT22;10062;51.052;13.756;2023-08-06T05:55:20;17.40;99.90
19805;DHT22;10062;51.052;13.756;2023-08-06T05:57:53;17.50;99.00
19805;DHT22;10062;51.052;13.756;2023-08-06T06:00:25;17.40;98.20
19805;DHT22;10062;51.052;13.756;2023-08-06T06:02:57;17.50;96.10
19805;DHT22;10062;51.052;13.756;2023-08-06T06:05:29;17.40;98.90
19805;DHT22;10062;51.052;13.756;2023-08-06T06:08:00;17.50;98.20
19805;DHT22;10062;51.052;13.756;2023-08-06T06:10:32;17.50;99.90
19805;DHT22;10062;51.052;13.756;2023-08-06T06:13:05;17.60;92.30
19805;DHT22;10062;51.052;13.756;2023-08-06T06:15:37;17.60;88.10
19805;DHT22;10062;51.052;13.756;2023-08-06T06:18:09;17.60;92.60
19805;DHT22;10062;51.052;13.756;2023-08-06T06:20:41;17.60;96.40
19805;DHT22;10062;51.052;13.756;2023-08-06T06:23:12;17.70;90.50
19805;DHT22;10062;51.052;13.756;2023-08-06T06:25:47;17.70;72.70
19805;DHT22;10062;51.052;13.756;2023-08-06T06:28:20;17.70;82.40
19805;DHT22;10062;51.052;13.756;2023-08-06T06:30:52;17.80;82.70
19805;DHT22;10062;51.052;13.756;2023-08-06T06:33:24;17.80;78.80
19805;DHT22;10062;51.052;13.756;2023-08-06T06:35:56;17.80;57.40
19805;DHT22;10062;51.052;13.756;2023-08-06T06:38:27;17.80;70.00
19805;DHT22;10062;51.052;13.756;2023-08-06T06:40:59;17.80;44.50
19805;DHT22;10062;51.052;13.756;2023-08-06T06:43:34;17.90;35.40
19805;DHT22;10062;51.052;13.756;2023-08-06T06:46:05;17.90;42.40
19805;DHT22;10062;51.052;13.756;2023-08-06T06:48:37;18.00;27.70
19805;DHT22;10062;51.052;13.756;2023-08-06T06:51:09;18.00;25.00
19805;DHT22;10062;51.052;13.756;2023-08-06T06:53:41;18.10;26.20
19805;DHT22;10062;51.052;13.756;2023-08-06T06:56:13;18.10;24.10
19805;DHT22;10062;51.052;13.756;2023-08-06T06:58:46;18.20;26.80
19805;DHT22;10062;51.052;13.756;2023-08-06T07:01:18;18.20;1.30
19805;DHT22;10062;51.052;13.756;2023-08-06T07:03:49;18.20;1.00
19805;DHT22;10062;51.052;13.756;2023-08-06T07:06:21;18.30;10.70
19805;DHT22;10062;51.052;13.756;2023-08-06T07:08:53;18.30;7.70
19805;DHT22;10062;51.052;13.756;2023-08-06T07:11:25;18.30;13.30
19805;DHT22;10062;51.052;13.756;2023-08-06T07:13:58;18.30;5.60
19805;DHT22;10062;51.052;13.756;2023-08-06T07:16:30;21.20;9.80
19805;DHT22;10062;51.052;13.756;2023-08-06T07:19:02;18.40;1.00
19805;DHT22;10062;51.052;13.756;2023-08-06T07:21:35;18.50;1.40
19805;DHT22;10062;51.052;13.756;2023-08-06T07:24:07;18.60;1.00
19805;DHT22;10062;51.052;13.756;2023-08-06T07:26:38;18.50;1.00
19805;DHT22;10062;51.052;13.756;2023-08-06T07:29:11;18.50;2.10
19805;DHT22;10062;51.052;13.756;2023-08-06T07:31:43;18.50;1.00
19805;DHT22;10062;51.052;13.756;2023-08-06T07:34:15;18.60;1.00
19805;DHT22;10062;51.052;13.756;2023-08-06T07:36:47;18.60;1.00
19805;DHT22;10062;51.052;13.756;2023-08-06T07:39:19;18.60;1.00
19805;DHT22;10062;51.052;13.756;2023-08-06T07:41:50;18.60;1.00
19805;DHT22;10062;51.052;13.756;2023-08-06T07:44:24;18.70;1.00
19805;DHT22;10062;51.052;13.756;2023-08-06T07:46:55;18.70;1.00
19805;DHT22;10062;51.052;13.756;2023-08-06T07:49:27;18.80;1.00
19805;DHT22;10062;51.052;13.756;2023-08-06T07:51:59;18.70;1.00
19805;DHT22;10062;51.052;13.756;2023-08-06T07:54:30;18.70;1.00
19805;DHT22;10062;51.052;13.756;2023-08-06T07:57:05;18.80;1.00
19805;DHT22;10062;51.052;13.756;2023-08-06T07:59:39;18.80;1.00
19805;DHT22;10062;51.052;13.756;2023-08-06T08:02:10;18.70;1.00
19805;DHT22;10062;51.052;13.756;2023-08-06T08:04:42;18.50;1.00
19805;DHT22;10062;51.052;13.756;2023-08-06T08:07:14;18.50;1.00
19805;DHT22;10062;51.052;13.756;2023-08-06T08:09:46;18.50;1.00
19805;DHT22;10062;51.052;13.756;2023-08-06T08:12:18;18.40;1.00
19805;DHT22;10062;51.052;13.756;2023-08-06T08:14:52;18.70;1.00
19805;DHT22;10062;51.052;13.756;2023-08-06T08:17:23;18.60;1.00
19805;DHT22;10062;51.052;13.756;2023-08-06T08:19:55;18.70;1.00
19805;DHT22;10062;51.052;13.756;2023-08-06T08:22:27;18.80;1.00
19805;DHT22;10062;51.052;13.756;2023-08-06T08:24:59;18.80;1.00
19805;DHT22;10062;51.052;13.756;2023-08-06T08:27:30;18.80;1.00
19805;DHT22;10062;51.052;13.756;2023-08-06T08:30:05;18.70;1.00
19805;DHT22;10062;51.052;13.756;2023-08-06T08:32:37;18.70;1.00
19805;DHT22;10062;51.052;13.756;2023-08-06T08:35:08;18.90;1.00
19805;DHT22;10062;51.052;13.756;2023-08-06T08:37:43;19.00;1.00
19805;DHT22;10062;51.052;13.756;2023-08-06T08:40:15;19.10;1.00
19805;DHT22;10062;51.052;13.756;2023-08-06T08:42:46;19.00;1.00
19805;DHT22;10062;51.052;13.756;2023-08-06T08:45:20;19.10;1.00
19805;DHT22;10062;51.052;13.756;2023-08-06T08:47:53;19.00;1.00
19805;DHT22;10062;51.052;13.756;2023-08-06T08:50:25;18.90;1.00
19805;DHT22;10062;51.052;13.756;2023-08-06T08:52:57;18.90;1.00
19805;DHT22;10062;51.052;13.756;2023-08-06T08:55:29;18.90;1.00
19805;DHT22;10062;51.052;13.756;2023-08-06T08:58:01;18.90;1.00
19805;DHT22;10062;51.052;13.756;2023-08-06T09:00:34;19.00;1.00
19805;DHT22;10062;51.052;13.756;2023-08-06T09:03:06;18.90;1.00
19805;DHT22;10062;51.052;13.756;2023-08-06T09:05:40;18.90;1.00
19805;DHT22;10062;51.052;13.756;2023-08-06T09:08:18;18.90;1.00
19805;DHT22;10062;51.052;13.756;2023-08-06T09:10:50;19.00;1.00
19805;DHT22;10062;51.052;13.756;2023-08-06T09:13:22;19.20;1.00
19805;DHT22;10062;51.052;13.756;2023-08-06T09:15:55;19.00;1.00
19805;DHT22;10062;51.052;13.756;2023-08-06T09:18:29;18.80;1.00
19805;DHT22;10062;51.052;13.756;2023-08-06T09:21:01;18.80;1.00
19805;DHT22;10062;51.052;13.756;2023-08-06T09:23:33;18.80;1.00
19805;DHT22;10062;51.052;13.756;2023-08-06T09:26:05;18.60;1.00
19805;DHT22;10062;51.052;13.756;2023-08-06T09:28:37;18.60;1.00
19805;DHT22;10062;51.052;13.756;2023-08-06T09:31:11;18.60;1.00
19805;DHT22;10062;51.052;13.756;2023-08-06T09:33:43;18.70;1.00
19805;DHT22;10062;51.052;13.756;2023-08-06T09:36:16;18.70;1.00
19805;DHT22;10062;51.052;13.756;2023-08-06T09:38:48;18.60;1.00
19805;DHT22;10062;51.052;13.756;2023-08-06T09:41:26;18.70;1.00
19805;DHT22;10062;51.052;13.756;2023-08-06T09:43:58;18.80;1.00
19805;DHT22;10062;51.052;13.756;2023-08-06T09:46:32;18.60;1.00
19805;DHT22;10062;51.052;13.756;2023-08-06T09:49:04;18.70;1.00
19805;DHT22;10062;51.052;13.756;2023-08-06T09:51:38;18.70;1.00
19805;DHT22;10062;51.052;13.756;2023-08-06T09:54:12;18.90;1.00
19805;DHT22;10062;51.052;13.756;2023-08-06T09:56:44;19.00;1.00
19805;DHT22;10062;51.052;13.756;2023-08-06T09:59:16;19.10;1.00
19805;DHT22;10062;51.052;13.756;2023-08-06T10:01:50;19.20;1.00
19805;DHT22;10062;51.052;13.756;2023-08-06T10:04:23;19.30;1.00
19805;DHT22;10062;51.052;13.756;2023-08-06T10:06:56;19.40;1.00
19805;DHT22;10062;51.052;13.756;2023-08-06T10:09:28;19.40;1.00
19805;DHT22;10062;51.052;13.756;2023-08-06T10:12:00;19.20;1.00
19805;DHT22;10062;51.052;13.756;2023-08-06T10:14:34;19.20;1.00
19805;DHT22;10062;51.052;13.756;2023-08-06T10:17:08;19.00;1.00
19805;DHT22;10062;51.052;13.756;2023-08-06T10:19:40;19.20;1.00
19805;DHT22;10062;51.052;13.756;2023-08-06T10:22:16;19.30;1.00
19805;DHT22;10062;51.052;13.756;2023-08-06T10:24:50;19.40;1.00
19805;DHT22;10062;51.052;13.756;2023-08-06T10:27:23;19.80;1.00
19805;DHT22;10062;51.052;13.756;2023-08-06T10:30:22;19.70;1.00
19805;DHT22;10062;51.052;13.756;2023-08-06T10:32:56;19.70;1.00
19805;DHT22;10062;51.052;13.756;2023-08-06T10:35:35;19.90;1.00
19805;DHT22;10062;51.052;13.756;2023-08-06T10:38:09;19.90;1.00
19805;DHT22;10062;51.052;13.756;2023-08-06T10:40:42;20.00;1.00
19805;DHT22;10062;51.052;13.756;2023-08-06T10:43:25;20.10;1.00
19805;DHT22;10062;51.052;13.756;2023-08-06T10:45:58;20.20;1.00
19805;DHT22;10062;51.052;13.756;2023-08-06T10:48:34;20.40;1.00
19805;DHT22;10062;51.052;13.756;2023-08-06T10:51:08;20.10;1.00
19805;DHT22;10062;51.052;13.756;2023-08-06T10:53:43;20.80;1.00
19805;DHT22;10062;51.052;13.756;2023-08-06T10:56:16;20.90;1.00
19805;DHT22;10062;51.052;13.756;2023-08-06T10:58:49;21.10;99.90
19805;DHT22;10062;51.052;13.756;2023-08-06T11:01:22;20.90;99.90
19805;DHT22;10062;51.052;13.756;2023-08-06T11:03:55;20.80;99.90
19805;DHT22;10062;51.052;13.756;2023-08-06T11:06:27;20.90;1.00
19805;DHT22;10062;51.052;13.756;2023-08-06T11:08:59;20.40;1.00
19805;DHT22;10062;51.052;13.756;2023-08-06T11:11:31;20.80;99.90
19805;DHT22;10062;51.052;13.756;2023-08-06T11:14:02;20.40;1.00
19805;DHT22;10062;51.052;13.756;2023-08-06T11:16:35;20.60;1.00
19805;DHT22;10062;51.052;13.756;2023-08-06T11:19:09;20.80;99.90
19805;DHT22;10062;51.052;13.756;2023-08-06T11:21:40;21.00;1.00
19805;DHT22;10062;51.052;13.756;2023-08-06T11:24:14;21.10;1.00
19805;DHT22;10062;51.052;13.756;2023-08-06T11:26:46;21.20;1.00
19805;DHT22;10062;51.052;13.756;2023-08-06T11:29:17;21.40;99.90
19805;DHT22;10062;51.052;13.756;2023-08-06T11:31:49;21.50;99.90
19805;DHT22;10062;51.052;13.756;2023-08-06T11:34:22;21.60;73.90
19805;DHT22;10062;51.052;13.756;2023-08-06T11:36:57;21.70;1.00
19805;DHT22;10062;51.052;13.756;2023-08-06T11:39:28;21.60;99.90
19805;DHT22;10062;51.052;13.756;2023-08-06T11:42:03;21.60;1.00
19805;DHT22;10062;51.052;13.756;2023-08-06T11:44:35;21.50;1.00
19805;DHT22;10062;51.052;13.756;2023-08-06T11:47:12;21.50;99.90
19805;DHT22;10062;51.052;13.756;2023-08-06T11:49:47;21.50;1.00
19805;DHT22;10062;51.052;13.756;2023-08-06T11:52:20;21.30;99.90
19805;DHT22;10062;51.052;13.756;2023-08-06T11:55:00;21.30;1.00
19805;DHT22;10062;51.052;13.756;2023-08-06T11:57:34;21.40;1.00
19805;DHT22;10062;51.052;13.756;2023-08-06T12:00:09;21.40;1.00
19805;DHT22;10062;51.052;13.756;2023-08-06T12:02:46;21.30;1.00
19805;DHT22;10062;51.052;13.756;2023-08-06T12:05:21;21.30;1.00
19805;DHT22;10062;51.052;13.756;2023-08-06T12:07:56;21.10;1.00
19805;DHT22;10062;51.052;13.756;2023-08-06T12:10:30;21.10;99.90
19805;DHT22;10062;51.052;13.756;2023-08-06T12:13:02;21.10;99.90
19805;DHT22;10062;51.052;13.756;2023-08-06T12:15:34;21.20;99.90
19805;DHT22;10062;51.052;13.756;2023-08-06T12:18:06;21.20;99.90
19805;DHT22;10062;51.052;13.756;2023-08-06T12:20:39;21.30;1.00
19805;DHT22;10062;51.052;13.756;2023-08-06T12:23:11;21.40;99.90
19805;DHT22;10062;51.052;13.756;2023-08-06T12:25:45;21.40;1.00
19805;DHT22;10062;51.052;13.756;2023-08-06T12:28:17;21.30;1.00
19805;DHT22;10062;51.052;13.756;2023-08-06T12:30:49;21.40;1.00
19805;DHT22;10062;51.052;13.756;2023-08-06T12:33:21;21.40;1.00
19805;DHT22;10062;51.052;13.756;2023-08-06T12:35:54;21.20;1.00
19805;DHT22;10062;51.052;13.756;2023-08-06T12:38:28;21.00;99.90
19805;DHT22;10062;51.052;13.756;2023-08-06T12:41:03;21.10;99.90
19805;DHT22;10062;51.052;13.756;2023-08-06T12:43:35;21.10;1.00
19805;DHT22;10062;51.052;13.756;2023-08-06T12:46:07;21.10;99.90
19805;DHT22;10062;51.052;13.756;2023-08-06T12:48:39;21.30;1.00
19805;DHT22;10062;51.052;13.756;2023-08-06T12:51:12;21.20;1.00
19805;DHT22;10062;51.052;13.756;2023-08-06T12:53:44;21.30;1.00
19805;DHT22;10062;51.052;13.756;2023-08-06T12:56:16;21.20;1.00
19805;DHT22;10062;51.052;13.756;2023-08-06T12:58:48;21.20;1.00
19805;DHT22;10062;51.052;13.756;2023-08-06T13:01:19;21.30;1.00
19805;DHT22;10062;51.052;13.756;2023-08-06T13:03:51;21.30;1.00
19805;DHT22;10062;51.052;13.756;2023-08-06T13:06:24;21.30;99.90
19805;DHT22;10062;51.052;13.756;2023-08-06T13:08:57;21.40;99.90
19805;DHT22;10062;51.052;13.756;2023-08-06T13:11:29;21.60;1.00
19805;DHT22;10062;51.052;13.756;2023-08-06T13:14:04;21.60;1.00
19805;DHT22;10062;51.052;13.756;2023-08-06T13:16:38;21.60;1.00
19805;DHT22;10062;51.052;13.756;2023-08-06T13:19:11;21.60;1.00
19805;DHT22;10062;51.052;13.756;2023-08-06T13:22:00;21.60;1.00
19805;DHT22;10062;51.052;13.756;2023-08-06T13:24:37;21.70;1.00
19805;DHT22;10062;51.052;13.756;2023-08-06T13:27:09;21.70;1.00
19805;DHT22;10062;51.052;13.756;2023-08-06T13:29:41;21.80;1.00
19805;DHT22;10062;51.052;13.756;2023-08-06T13:32:13;21.90;1.00
19805;DHT22;10062;51.052;13.756;2023-08-06T13:34:45;22.00;1.00
19805;DHT22;10062;51.052;13.756;2023-08-06T13:37:18;22.00;1.00
19805;DHT22;10062;51.052;13.756;2023-08-06T13:39:50;22.10;1.00
19805;DHT22;10062;51.052;13.756;2023-08-06T13:42:22;22.00;1.00
19805;DHT22;10062;51.052;13.756;2023-08-06T13:44:54;22.00;1.00
19805;DHT22;10062;51.052;13.756;2023-08-06T13:47:30;22.10;1.00
19805;DHT22;10062;51.052;13.756;2023-08-06T13:50:01;22.30;1.00
19805;DHT22;10062;51.052;13.756;2023-08-06T13:52:35;22.30;1.00
19805;DHT22;10062;51.052;13.756;2023-08-06T13:55:07;22.50;99.90
19805;DHT22;10062;51.052;13.756;2023-08-06T13:57:39;22.60;1.00
19805;DHT22;10062;51.052;13.756;2023-08-06T14:00:12;22.50;1.00
19805;DHT22;10062;51.052;13.756;2023-08-06T14:02:44;22.60;99.90
19805;DHT22;10062;51.052;13.756;2023-08-06T14:05:18;22.60;1.00
19805;DHT22;10062;51.052;13.756;2023-08-06T14:07:51;22.60;1.00
19805;DHT22;10062;51.052;13.756;2023-08-06T14:10:23;22.50;1.00
19805;DHT22;10062;51.052;13.756;2023-08-06T14:12:55;22.50;1.00
19805;DHT22;10062;51.052;13.756;2023-08-06T14:15:27;22.50;1.00
19805;DHT22;10062;51.052;13.756;2023-08-06T14:17:58;22.40;1.00
19805;DHT22;10062;51.052;13.756;2023-08-06T14:20:30;22.40;1.00
19805;DHT22;10062;51.052;13.756;2023-08-06T14:23:03;22.30;1.00
19805;DHT22;10062;51.052;13.756;2023-08-06T14:25:35;22.10;99.90
19805;DHT22;10062;51.052;13.756;2023-08-06T14:28:07;22.10;1.00
19805;DHT22;10062;51.052;13.756;2023-08-06T14:30:39;22.20;1.00
19805;DHT22;10062;51.052;13.756;2023-08-06T14:33:11;22.20;1.00
19805;DHT22;10062;51.052;13.756;2023-08-06T14:35:43;22.40;99.90
19805;DHT22;10062;51.052;13.756;2023-08-06T14:38:16;22.40;1.00
19805;DHT22;10062;51.052;13.756;2023-08-06T14:40:48;22.40;1.00
19805;DHT22;10062;51.052;13.756;2023-08-06T14:43:20;22.30;1.00
19805;DHT22;10062;51.052;13.756;2023-08-06T14:45:52;22.20;1.00
19805;DHT22;10062;51.052;13.756;2023-08-06T14:48:24;22.10;99.90
19805;DHT22;10062;51.052;13.756;2023-08-06T14:50:56;22.10;1.00
19805;DHT22;10062;51.052;13.756;2023-08-06T14:53:29;22.00;1.00
19805;DHT22;10062;51.052;13.756;2023-08-06T14:56:01;22.00;86.50
19805;DHT22;10062;51.052;13.756;2023-08-06T14:58:33;22.00;1.00
19805;DHT22;10062;51.052;13.756;2023-08-06T15:01:04;22.00;1.00
19805;DHT22;10062;51.052;13.756;2023-08-06T15:03:36;21.90;1.00
19805;DHT22;10062;51.052;13.756;2023-08-06T15:06:08;22.00;1.00
19805;DHT22;10062;51.052;13.756;2023-08-06T15:08:41;22.00;1.00
19805;DHT22;10062;51.052;13.756;2023-08-06T15:11:15;22.00;1.00
19805;DHT22;10062;51.052;13.756;2023-08-06T15:13:47;22.00;99.90
19805;DHT22;10062;51.052;13.756;2023-08-06T15:16:19;21.80;1.00
19805;DHT22;10062;51.052;13.756;2023-08-06T15:18:51;21.70;1.00
19805;DHT22;10062;51.052;13.756;2023-08-06T15:21:23;21.70;1.00
19805;DHT22;10062;51.052;13.756;2023-08-06T15:23:56;21.90;1.00
19805;DHT22;10062;51.052;13.756;2023-08-06T15:26:28;22.00;1.00
19805;DHT22;10062;51.052;13.756;2023-08-06T15:28:59;22.10;1.00
19805;DHT22;10062;51.052;13.756;2023-08-06T15:31:36;22.00;1.00
19805;DHT22;10062;51.052;13.756;2023-08-06T15:34:08;21.90;1.00
19805;DHT22;10062;51.052;13.756;2023-08-06T15:36:40;21.90;1.00
19805;DHT22;10062;51.052;13.756;2023-08-06T15:39:13;21.80;99.90
19805;DHT22;10062;51.052;13.756;2023-08-06T15:41:45;21.70;99.90
19805;DHT22;10062;51.052;13.756;2023-08-06T15:44:17;21.70;1.00
19805;DHT22;10062;51.052;13.756;2023-08-06T15:46:48;21.50;55.20
19805;DHT22;10062;51.052;13.756;2023-08-06T15:49:20;21.40;1.00
19805;DHT22;10062;51.052;13.756;2023-08-06T15:51:52;21.20;99.90
19805;DHT22;10062;51.052;13.756;2023-08-06T15:54:25;21.10;99.90
19805;DHT22;10062;51.052;13.756;2023-08-06T15:56:57;21.10;99.90
19805;DHT22;10062;51.052;13.756;2023-08-06T15:59:30;21.00;99.90
19805;DHT22;10062;51.052;13.756;2023-08-06T16:02:03;20.90;1.00